sensor_id;sensor_type;location;lat;lon;timestamp;P1;durP1;ratioP1;P2;durP2;ratioP2
71127;SDS011;59249;59.736;30.568;2023-06-22T00:01:06;9.40;;;3.80;;
71127;SDS011;59249;59.736;30.568;2023-06-22T00:03:35;7.77;;;3.60;;
71127;SDS011;59249;59.736;30.568;2023-06-22T00:06:04;7.38;;;3.92;;
71127;SDS011;59249;59.736;30.568;2023-06-22T00:08:33;9.02;;;3.58;;
71127;SDS011;59249;59.736;30.568;2023-06-22T00:11:01;6.85;;;3.60;;
71127;SDS011;59249;59.736;30.568;2023-06-22T00:13:30;8.95;;;4.00;;
71127;SDS011;59249;59.736;30.568;2023-06-22T00:15:59;8.07;;;3.87;;
71127;SDS011;59249;59.736;30.568;2023-06-22T00:18:29;6.43;;;3.38;;
71127;SDS011;59249;59.736;30.568;2023-06-22T00:20:59;8.15;;;3.97;;
71127;SDS011;59249;59.736;30.568;2023-06-22T00:23:28;7.65;;;3.17;;
71127;SDS011;59249;59.736;30.568;2023-06-22T00:26:00;8.48;;;4.10;;
71127;SDS011;59249;59.736;30.568;2023-06-22T00:28:30;7.07;;;3.77;;
71127;SDS011;59249;59.736;30.568;2023-06-22T00:31:01;7.30;;;3.38;;
71127;SDS011;59249;59.736;30.568;2023-06-22T00:33:31;7.57;;;4.32;;
71127;SDS011;59249;59.736;30.568;2023-06-22T00:36:04;8.90;;;3.40;;
71127;SDS011;59249;59.736;30.568;2023-06-22T00:38:34;6.57;;;3.25;;
71127;SDS011;59249;59.736;30.568;2023-06-22T00:41:08;7.57;;;3.67;;
71127;SDS011;59249;59.736;30.568;2023-06-22T00:43:37;5.85;;;3.25;;
71127;SDS011;59249;59.736;30.568;2023-06-22T00:46:05;7.63;;;3.47;;
71127;SDS011;59249;59.736;30.568;2023-06-22T00:48:37;6.80;;;3.22;;
71127;SDS011;59249;59.736;30.568;2023-06-22T00:51:08;8.30;;;3.72;;
71127;SDS011;59249;59.736;30.568;2023-06-22T00:53:38;11.40;;;3.83;;
71127;SDS011;59249;59.736;30.568;2023-06-22T00:56:07;6.93;;;3.58;;
71127;SDS011;59249;59.736;30.568;2023-06-22T00:58:39;7.20;;;3.72;;
71127;SDS011;59249;59.736;30.568;2023-06-22T01:01:16;7.88;;;3.60;;
71127;SDS011;59249;59.736;30.568;2023-06-22T01:03:46;7.47;;;3.90;;
71127;SDS011;59249;59.736;30.568;2023-06-22T01:06:15;6.73;;;3.70;;
71127;SDS011;59249;59.736;30.568;2023-06-22T01:08:57;7.05;;;3.50;;
71127;SDS011;59249;59.736;30.568;2023-06-22T01:11:35;8.05;;;3.65;;
71127;SDS011;59249;59.736;30.568;2023-06-22T01:14:14;6.90;;;3.92;;
71127;SDS011;59249;59.736;30.568;2023-06-22T01:16:50;10.25;;;3.78;;
71127;SDS011;59249;59.736;30.568;2023-06-22T01:19:38;7.37;;;3.77;;
71127;SDS011;59249;59.736;30.568;2023-06-22T01:22:15;8.13;;;3.47;;
71127;SDS011;59249;59.736;30.568;2023-06-22T01:24:51;8.13;;;3.55;;
71127;SDS011;59249;59.736;30.568;2023-06-22T01:27:39;6.50;;;3.58;;
71127;SDS011;59249;59.736;30.568;2023-06-22T01:30:44;10.88;;;4.07;;
71127;SDS011;59249;59.736;30.568;2023-06-22T01:33:15;8.00;;;3.60;;
71127;SDS011;59249;59.736;30.568;2023-06-22T01:35:45;8.73;;;4.28;;
71127;SDS011;59249;59.736;30.568;2023-06-22T01:38:14;6.82;;;3.50;;
71127;SDS011;59249;59.736;30.568;2023-06-22T01:40:43;7.95;;;3.28;;
71127;SDS011;59249;59.736;30.568;2023-06-22T01:43:12;8.38;;;3.80;;
71127;SDS011;59249;59.736;30.568;2023-06-22T01:45:41;8.37;;;3.93;;
71127;SDS011;59249;59.736;30.568;2023-06-22T01:48:13;7.03;;;4.00;;
71127;SDS011;59249;59.736;30.568;2023-06-22T01:50:42;10.07;;;4.95;;
71127;SDS011;59249;59.736;30.568;2023-06-22T01:53:11;6.60;;;3.40;;
71127;SDS011;59249;59.736;30.568;2023-06-22T01:55:40;7.63;;;3.97;;
71127;SDS011;59249;59.736;30.568;2023-06-22T01:58:09;9.00;;;3.53;;
71127;SDS011;59249;59.736;30.568;2023-06-22T02:00:38;6.57;;;3.65;;
71127;SDS011;59249;59.736;30.568;2023-06-22T02:03:18;7.32;;;4.40;;
71127;SDS011;59249;59.736;30.568;2023-06-22T02:05:54;8.35;;;3.95;;
71127;SDS011;59249;59.736;30.568;2023-06-22T02:08:32;8.75;;;4.40;;
71127;SDS011;59249;59.736;30.568;2023-06-22T02:11:09;11.93;;;3.80;;
71127;SDS011;59249;59.736;30.568;2023-06-22T02:13:42;11.55;;;3.83;;
71127;SDS011;59249;59.736;30.568;2023-06-22T02:16:13;7.03;;;3.65;;
71127;SDS011;59249;59.736;30.568;2023-06-22T02:18:47;7.72;;;4.20;;
71127;SDS011;59249;59.736;30.568;2023-06-22T02:21:22;8.20;;;3.83;;
71127;SDS011;59249;59.736;30.568;2023-06-22T02:23:51;6.97;;;3.70;;
71127;SDS011;59249;59.736;30.568;2023-06-22T02:26:21;6.75;;;4.03;;
71127;SDS011;59249;59.736;30.568;2023-06-22T02:28:53;8.20;;;4.10;;
71127;SDS011;59249;59.736;30.568;2023-06-22T02:31:22;7.65;;;4.05;;
71127;SDS011;59249;59.736;30.568;2023-06-22T02:33:59;6.65;;;3.97;;
71127;SDS011;59249;59.736;30.568;2023-06-22T02:36:28;9.97;;;4.10;;
71127;SDS011;59249;59.736;30.568;2023-06-22T02:39:00;6.97;;;4.00;;
71127;SDS011;59249;59.736;30.568;2023-06-22T02:41:30;9.18;;;4.10;;
71127;SDS011;59249;59.736;30.568;2023-06-22T02:43:59;9.57;;;3.92;;
71127;SDS011;59249;59.736;30.568;2023-06-22T02:46:28;9.18;;;4.30;;
71127;SDS011;59249;59.736;30.568;2023-06-22T02:48:59;9.43;;;5.00;;
71127;SDS011;59249;59.736;30.568;2023-06-22T02:51:32;7.57;;;4.10;;
71127;SDS011;59249;59.736;30.568;2023-06-22T02:54:02;8.77;;;4.47;;
71127;SDS011;59249;59.736;30.568;2023-06-22T02:56:32;7.63;;;4.13;;
71127;SDS011;59249;59.736;30.568;2023-06-22T02:59:03;8.20;;;4.68;;
71127;SDS011;59249;59.736;30.568;2023-06-22T03:01:37;7.03;;;3.87;;
71127;SDS011;59249;59.736;30.568;2023-06-22T03:04:23;9.52;;;4.45;;
71127;SDS011;59249;59.736;30.568;2023-06-22T03:06:52;8.70;;;4.40;;
71127;SDS011;59249;59.736;30.568;2023-06-22T03:09:20;10.48;;;4.72;;
71127;SDS011;59249;59.736;30.568;2023-06-22T03:11:49;8.48;;;4.50;;
71127;SDS011;59249;59.736;30.568;2023-06-22T03:14:19;10.50;;;5.23;;
71127;SDS011;59249;59.736;30.568;2023-06-22T03:16:49;8.38;;;4.78;;
71127;SDS011;59249;59.736;30.568;2023-06-22T03:19:19;9.65;;;4.78;;
71127;SDS011;59249;59.736;30.568;2023-06-22T03:21:49;8.93;;;4.65;;
71127;SDS011;59249;59.736;30.568;2023-06-22T03:24:18;9.70;;;5.43;;
71127;SDS011;59249;59.736;30.568;2023-06-22T03:26:47;12.97;;;5.00;;
71127;SDS011;59249;59.736;30.568;2023-06-22T03:29:16;10.52;;;4.88;;
71127;SDS011;59249;59.736;30.568;2023-06-22T03:31:45;9.98;;;5.00;;
71127;SDS011;59249;59.736;30.568;2023-06-22T03:34:14;8.75;;;4.93;;
71127;SDS011;59249;59.736;30.568;2023-06-22T03:36:43;13.55;;;5.20;;
71127;SDS011;59249;59.736;30.568;2023-06-22T03:39:14;10.97;;;5.10;;
71127;SDS011;59249;59.736;30.568;2023-06-22T03:41:43;9.35;;;5.43;;
71127;SDS011;59249;59.736;30.568;2023-06-22T03:44:12;8.68;;;5.15;;
71127;SDS011;59249;59.736;30.568;2023-06-22T03:46:42;11.93;;;5.53;;
71127;SDS011;59249;59.736;30.568;2023-06-22T03:49:11;8.63;;;4.90;;
71127;SDS011;59249;59.736;30.568;2023-06-22T03:51:39;8.90;;;5.00;;
71127;SDS011;59249;59.736;30.568;2023-06-22T03:54:08;10.05;;;5.05;;
71127;SDS011;59249;59.736;30.568;2023-06-22T03:56:38;8.30;;;4.72;;
71127;SDS011;59249;59.736;30.568;2023-06-22T03:59:07;8.63;;;4.60;;
71127;SDS011;59249;59.736;30.568;2023-06-22T04:01:36;8.50;;;5.15;;
71127;SDS011;59249;59.736;30.568;2023-06-22T04:04:05;8.73;;;4.43;;
71127;SDS011;59249;59.736;30.568;2023-06-22T04:06:34;9.15;;;5.10;;
71127;SDS011;59249;59.736;30.568;2023-06-22T04:09:03;8.30;;;5.22;;
71127;SDS011;59249;59.736;30.568;2023-06-22T04:11:32;13.38;;;5.97;;
71127;SDS011;59249;59.736;30.568;2023-06-22T04:14:02;12.90;;;6.25;;
71127;SDS011;59249;59.736;30.568;2023-06-22T04:16:31;9.50;;;5.03;;
71127;SDS011;59249;59.736;30.568;2023-06-22T04:19:00;9.00;;;5.53;;
71127;SDS011;59249;59.736;30.568;2023-06-22T04:21:30;10.32;;;5.60;;
71127;SDS011;59249;59.736;30.568;2023-06-22T04:23:59;8.60;;;6.18;;
71127;SDS011;59249;59.736;30.568;2023-06-22T04:26:28;9.93;;;5.97;;
71127;SDS011;59249;59.736;30.568;2023-06-22T04:28:56;10.43;;;5.63;;
71127;SDS011;59249;59.736;30.568;2023-06-22T04:31:27;10.45;;;5.63;;
71127;SDS011;59249;59.736;30.568;2023-06-22T04:33:59;9.90;;;5.75;;
71127;SDS011;59249;59.736;30.568;2023-06-22T04:36:34;8.65;;;5.63;;
71127;SDS011;59249;59.736;30.568;2023-06-22T04:39:06;11.15;;;5.68;;
71127;SDS011;59249;59.736;30.568;2023-06-22T04:41:37;9.83;;;5.77;;
71127;SDS011;59249;59.736;30.568;2023-06-22T04:44:10;9.05;;;5.68;;
71127;SDS011;59249;59.736;30.568;2023-06-22T04:46:53;10.27;;;5.60;;
71127;SDS011;59249;59.736;30.568;2023-06-22T04:49:30;9.45;;;6.07;;
71127;SDS011;59249;59.736;30.568;2023-06-22T04:52:05;9.43;;;5.85;;
71127;SDS011;59249;59.736;30.568;2023-06-22T04:54:36;11.83;;;6.20;;
71127;SDS011;59249;59.736;30.568;2023-06-22T04:57:07;9.68;;;5.38;;
71127;SDS011;59249;59.736;30.568;2023-06-22T04:59:37;10.27;;;6.05;;
71127;SDS011;59249;59.736;30.568;2023-06-22T05:02:10;12.63;;;6.00;;
71127;SDS011;59249;59.736;30.568;2023-06-22T05:04:39;10.85;;;6.00;;
71127;SDS011;59249;59.736;30.568;2023-06-22T05:07:08;10.20;;;5.70;;
71127;SDS011;59249;59.736;30.568;2023-06-22T05:09:37;8.98;;;5.32;;
71127;SDS011;59249;59.736;30.568;2023-06-22T05:12:06;11.85;;;6.55;;
71127;SDS011;59249;59.736;30.568;2023-06-22T05:14:37;15.35;;;6.07;;
71127;SDS011;59249;59.736;30.568;2023-06-22T05:17:06;10.70;;;5.80;;
71127;SDS011;59249;59.736;30.568;2023-06-22T05:19:43;9.50;;;6.37;;
71127;SDS011;59249;59.736;30.568;2023-06-22T05:22:15;9.45;;;6.20;;
71127;SDS011;59249;59.736;30.568;2023-06-22T05:24:44;11.27;;;6.22;;
71127;SDS011;59249;59.736;30.568;2023-06-22T05:27:14;9.77;;;6.28;;
71127;SDS011;59249;59.736;30.568;2023-06-22T05:29:45;9.85;;;6.38;;
71127;SDS011;59249;59.736;30.568;2023-06-22T05:32:14;11.47;;;6.37;;
71127;SDS011;59249;59.736;30.568;2023-06-22T05:34:44;9.68;;;5.65;;
71127;SDS011;59249;59.736;30.568;2023-06-22T05:37:13;10.10;;;6.95;;
71127;SDS011;59249;59.736;30.568;2023-06-22T05:39:42;13.15;;;6.75;;
71127;SDS011;59249;59.736;30.568;2023-06-22T05:42:20;10.85;;;5.85;;
71127;SDS011;59249;59.736;30.568;2023-06-22T05:44:50;10.63;;;6.00;;
71127;SDS011;59249;59.736;30.568;2023-06-22T05:47:19;9.90;;;6.68;;
71127;SDS011;59249;59.736;30.568;2023-06-22T05:49:51;13.13;;;6.50;;
71127;SDS011;59249;59.736;30.568;2023-06-22T05:52:21;10.15;;;6.47;;
71127;SDS011;59249;59.736;30.568;2023-06-22T05:54:50;11.20;;;6.40;;
71127;SDS011;59249;59.736;30.568;2023-06-22T05:57:18;13.43;;;6.57;;
71127;SDS011;59249;59.736;30.568;2023-06-22T05:59:48;10.40;;;6.57;;
71127;SDS011;59249;59.736;30.568;2023-06-22T06:02:17;11.52;;;5.90;;
71127;SDS011;59249;59.736;30.568;2023-06-22T06:04:46;12.27;;;6.45;;
71127;SDS011;59249;59.736;30.568;2023-06-22T06:07:19;10.25;;;6.18;;
71127;SDS011;59249;59.736;30.568;2023-06-22T06:09:49;12.67;;;6.43;;
71127;SDS011;59249;59.736;30.568;2023-06-22T06:12:17;9.93;;;5.85;;
71127;SDS011;59249;59.736;30.568;2023-06-22T06:14:47;11.27;;;6.43;;
71127;SDS011;59249;59.736;30.568;2023-06-22T06:17:19;11.73;;;6.10;;
71127;SDS011;59249;59.736;30.568;2023-06-22T06:19:48;8.43;;;5.80;;
71127;SDS011;59249;59.736;30.568;2023-06-22T06:22:17;10.07;;;5.67;;
71127;SDS011;59249;59.736;30.568;2023-06-22T06:24:50;9.48;;;5.80;;
71127;SDS011;59249;59.736;30.568;2023-06-22T06:27:19;8.88;;;5.60;;
71127;SDS011;59249;59.736;30.568;2023-06-22T06:29:57;10.23;;;5.72;;
71127;SDS011;59249;59.736;30.568;2023-06-22T06:32:26;12.95;;;6.05;;
71127;SDS011;59249;59.736;30.568;2023-06-22T06:34:57;10.23;;;5.67;;
71127;SDS011;59249;59.736;30.568;2023-06-22T06:37:27;8.65;;;5.95;;
71127;SDS011;59249;59.736;30.568;2023-06-22T06:39:56;9.68;;;6.32;;
71127;SDS011;59249;59.736;30.568;2023-06-22T06:42:25;12.50;;;6.18;;
71127;SDS011;59249;59.736;30.568;2023-06-22T06:44:54;13.35;;;7.10;;
71127;SDS011;59249;59.736;30.568;2023-06-22T06:47:23;12.50;;;6.73;;
71127;SDS011;59249;59.736;30.568;2023-06-22T06:49:51;12.60;;;6.80;;
71127;SDS011;59249;59.736;30.568;2023-06-22T06:52:21;12.27;;;6.97;;
71127;SDS011;59249;59.736;30.568;2023-06-22T06:54:52;15.10;;;7.20;;
71127;SDS011;59249;59.736;30.568;2023-06-22T06:57:21;10.32;;;6.25;;
71127;SDS011;59249;59.736;30.568;2023-06-22T06:59:50;13.00;;;5.80;;
71127;SDS011;59249;59.736;30.568;2023-06-22T07:02:22;11.73;;;5.72;;
71127;SDS011;59249;59.736;30.568;2023-06-22T07:04:50;9.80;;;5.60;;
71127;SDS011;59249;59.736;30.568;2023-06-22T07:07:19;11.95;;;6.07;;
71127;SDS011;59249;59.736;30.568;2023-06-22T07:09:48;11.38;;;6.10;;
71127;SDS011;59249;59.736;30.568;2023-06-22T07:12:18;12.90;;;5.53;;
71127;SDS011;59249;59.736;30.568;2023-06-22T07:14:46;13.10;;;5.70;;
71127;SDS011;59249;59.736;30.568;2023-06-22T07:17:15;11.27;;;5.50;;
71127;SDS011;59249;59.736;30.568;2023-06-22T07:19:44;7.97;;;5.25;;
71127;SDS011;59249;59.736;30.568;2023-06-22T07:22:13;8.93;;;5.30;;
71127;SDS011;59249;59.736;30.568;2023-06-22T07:24:42;10.83;;;5.27;;
71127;SDS011;59249;59.736;30.568;2023-06-22T07:27:10;9.82;;;5.35;;
71127;SDS011;59249;59.736;30.568;2023-06-22T07:29:41;10.13;;;5.38;;
71127;SDS011;59249;59.736;30.568;2023-06-22T07:32:10;11.05;;;5.78;;
71127;SDS011;59249;59.736;30.568;2023-06-22T07:34:39;10.48;;;5.55;;
71127;SDS011;59249;59.736;30.568;2023-06-22T07:37:08;10.00;;;6.03;;
71127;SDS011;59249;59.736;30.568;2023-06-22T07:39:37;11.45;;;5.75;;
71127;SDS011;59249;59.736;30.568;2023-06-22T07:42:06;12.00;;;6.03;;
71127;SDS011;59249;59.736;30.568;2023-06-22T07:44:36;13.23;;;7.22;;
71127;SDS011;59249;59.736;30.568;2023-06-22T07:47:06;12.15;;;6.47;;
71127;SDS011;59249;59.736;30.568;2023-06-22T07:49:35;12.17;;;6.33;;
71127;SDS011;59249;59.736;30.568;2023-06-22T07:52:04;15.00;;;6.43;;
71127;SDS011;59249;59.736;30.568;2023-06-22T07:54:34;11.65;;;6.78;;
71127;SDS011;59249;59.736;30.568;2023-06-22T07:57:03;10.50;;;5.38;;
71127;SDS011;59249;59.736;30.568;2023-06-22T07:59:32;11.60;;;6.70;;
71127;SDS011;59249;59.736;30.568;2023-06-22T08:02:01;12.70;;;6.90;;
71127;SDS011;59249;59.736;30.568;2023-06-22T08:04:32;12.18;;;7.28;;
71127;SDS011;59249;59.736;30.568;2023-06-22T08:07:01;8.52;;;6.20;;
71127;SDS011;59249;59.736;30.568;2023-06-22T08:09:32;9.40;;;6.65;;
71127;SDS011;59249;59.736;30.568;2023-06-22T08:12:01;9.88;;;5.93;;
71127;SDS011;59249;59.736;30.568;2023-06-22T08:14:30;11.17;;;7.20;;
71127;SDS011;59249;59.736;30.568;2023-06-22T08:17:03;11.65;;;6.50;;
71127;SDS011;59249;59.736;30.568;2023-06-22T08:19:36;12.32;;;6.95;;
71127;SDS011;59249;59.736;30.568;2023-06-22T08:22:05;10.38;;;6.20;;
71127;SDS011;59249;59.736;30.568;2023-06-22T08:24:35;11.25;;;6.55;;
71127;SDS011;59249;59.736;30.568;2023-06-22T08:27:06;11.10;;;6.27;;
71127;SDS011;59249;59.736;30.568;2023-06-22T08:29:36;11.82;;;6.43;;
71127;SDS011;59249;59.736;30.568;2023-06-22T08:32:05;11.07;;;6.43;;
71127;SDS011;59249;59.736;30.568;2023-06-22T08:34:38;12.07;;;6.68;;
71127;SDS011;59249;59.736;30.568;2023-06-22T08:37:09;10.60;;;6.63;;
71127;SDS011;59249;59.736;30.568;2023-06-22T08:39:39;13.30;;;6.77;;
71127;SDS011;59249;59.736;30.568;2023-06-22T08:42:08;12.57;;;7.10;;
71127;SDS011;59249;59.736;30.568;2023-06-22T08:44:37;10.90;;;7.03;;
71127;SDS011;59249;59.736;30.568;2023-06-22T08:47:06;16.02;;;6.38;;
71127;SDS011;59249;59.736;30.568;2023-06-22T08:49:37;11.30;;;6.70;;
71127;SDS011;59249;59.736;30.568;2023-06-22T08:52:06;8.90;;;6.37;;
71127;SDS011;59249;59.736;30.568;2023-06-22T08:54:36;12.68;;;6.60;;
71127;SDS011;59249;59.736;30.568;2023-06-22T08:57:05;11.43;;;6.97;;
71127;SDS011;59249;59.736;30.568;2023-06-22T08:59:37;13.10;;;7.35;;
71127;SDS011;59249;59.736;30.568;2023-06-22T09:02:06;10.13;;;6.85;;
71127;SDS011;59249;59.736;30.568;2023-06-22T09:04:37;12.07;;;7.27;;
71127;SDS011;59249;59.736;30.568;2023-06-22T09:07:06;14.00;;;6.68;;
71127;SDS011;59249;59.736;30.568;2023-06-22T09:09:35;11.18;;;6.75;;
71127;SDS011;59249;59.736;30.568;2023-06-22T09:12:04;9.00;;;5.75;;
71127;SDS011;59249;59.736;30.568;2023-06-22T09:14:34;9.63;;;6.50;;
71127;SDS011;59249;59.736;30.568;2023-06-22T09:17:04;10.73;;;6.20;;
71127;SDS011;59249;59.736;30.568;2023-06-22T09:19:33;9.15;;;5.57;;
71127;SDS011;59249;59.736;30.568;2023-06-22T09:22:04;12.93;;;6.50;;
71127;SDS011;59249;59.736;30.568;2023-06-22T09:24:34;10.73;;;6.88;;
71127;SDS011;59249;59.736;30.568;2023-06-22T09:27:03;11.77;;;6.65;;
71127;SDS011;59249;59.736;30.568;2023-06-22T09:29:32;11.00;;;6.23;;
71127;SDS011;59249;59.736;30.568;2023-06-22T09:32:01;9.32;;;6.60;;
71127;SDS011;59249;59.736;30.568;2023-06-22T09:34:30;9.63;;;6.88;;
71127;SDS011;59249;59.736;30.568;2023-06-22T09:36:59;11.23;;;6.30;;
71127;SDS011;59249;59.736;30.568;2023-06-22T09:39:32;11.35;;;6.30;;
71127;SDS011;59249;59.736;30.568;2023-06-22T09:42:01;8.73;;;5.57;;
71127;SDS011;59249;59.736;30.568;2023-06-22T09:44:32;11.70;;;5.88;;
71127;SDS011;59249;59.736;30.568;2023-06-22T09:47:01;10.40;;;6.13;;
71127;SDS011;59249;59.736;30.568;2023-06-22T09:49:30;10.93;;;6.05;;
71127;SDS011;59249;59.736;30.568;2023-06-22T09:52:13;10.30;;;6.38;;
71127;SDS011;59249;59.736;30.568;2023-06-22T09:54:45;9.87;;;6.10;;
71127;SDS011;59249;59.736;30.568;2023-06-22T09:57:13;10.63;;;6.40;;
71127;SDS011;59249;59.736;30.568;2023-06-22T09:59:42;10.90;;;7.03;;
71127;SDS011;59249;59.736;30.568;2023-06-22T10:02:11;12.45;;;6.80;;
71127;SDS011;59249;59.736;30.568;2023-06-22T10:04:40;8.52;;;6.07;;
71127;SDS011;59249;59.736;30.568;2023-06-22T10:07:09;10.30;;;6.30;;
71127;SDS011;59249;59.736;30.568;2023-06-22T10:09:38;11.07;;;6.95;;
71127;SDS011;59249;59.736;30.568;2023-06-22T10:12:08;13.07;;;6.88;;
71127;SDS011;59249;59.736;30.568;2023-06-22T10:14:37;8.85;;;6.50;;
71127;SDS011;59249;59.736;30.568;2023-06-22T10:17:06;10.02;;;6.22;;
71127;SDS011;59249;59.736;30.568;2023-06-22T10:19:35;11.30;;;6.50;;
71127;SDS011;59249;59.736;30.568;2023-06-22T10:22:05;10.30;;;6.90;;
71127;SDS011;59249;59.736;30.568;2023-06-22T10:24:34;10.95;;;6.40;;
71127;SDS011;59249;59.736;30.568;2023-06-22T10:27:02;11.18;;;6.82;;
71127;SDS011;59249;59.736;30.568;2023-06-22T10:29:33;9.88;;;6.47;;
71127;SDS011;59249;59.736;30.568;2023-06-22T10:32:02;10.20;;;6.43;;
71127;SDS011;59249;59.736;30.568;2023-06-22T10:34:31;11.00;;;7.10;;
71127;SDS011;59249;59.736;30.568;2023-06-22T10:37:00;10.23;;;6.80;;
71127;SDS011;59249;59.736;30.568;2023-06-22T10:39:29;10.48;;;6.82;;
71127;SDS011;59249;59.736;30.568;2023-06-22T10:41:58;9.18;;;6.88;;
71127;SDS011;59249;59.736;30.568;2023-06-22T10:44:26;10.70;;;7.40;;
71127;SDS011;59249;59.736;30.568;2023-06-22T10:46:57;10.18;;;6.60;;
71127;SDS011;59249;59.736;30.568;2023-06-22T10:49:25;9.57;;;7.10;;
71127;SDS011;59249;59.736;30.568;2023-06-22T10:51:54;11.52;;;7.15;;
71127;SDS011;59249;59.736;30.568;2023-06-22T10:54:23;8.55;;;6.93;;
71127;SDS011;59249;59.736;30.568;2023-06-22T10:56:52;11.07;;;6.73;;
71127;SDS011;59249;59.736;30.568;2023-06-22T10:59:21;9.82;;;6.82;;
71127;SDS011;59249;59.736;30.568;2023-06-22T11:01:50;9.70;;;6.70;;
71127;SDS011;59249;59.736;30.568;2023-06-22T11:04:21;10.02;;;6.75;;
71127;SDS011;59249;59.736;30.568;2023-06-22T11:06:50;10.07;;;7.15;;
71127;SDS011;59249;59.736;30.568;2023-06-22T11:09:19;11.47;;;6.37;;
71127;SDS011;59249;59.736;30.568;2023-06-22T11:11:53;12.93;;;7.18;;
71127;SDS011;59249;59.736;30.568;2023-06-22T11:14:23;11.23;;;6.72;;
71127;SDS011;59249;59.736;30.568;2023-06-22T11:16:52;9.65;;;6.63;;
71127;SDS011;59249;59.736;30.568;2023-06-22T11:19:23;8.63;;;6.60;;
71127;SDS011;59249;59.736;30.568;2023-06-22T11:21:52;10.13;;;6.97;;
71127;SDS011;59249;59.736;30.568;2023-06-22T11:24:21;10.48;;;6.68;;
71127;SDS011;59249;59.736;30.568;2023-06-22T11:26:50;8.82;;;6.00;;
71127;SDS011;59249;59.736;30.568;2023-06-22T11:29:19;9.07;;;5.80;;
71127;SDS011;59249;59.736;30.568;2023-06-22T11:32:03;7.97;;;5.95;;
71127;SDS011;59249;59.736;30.568;2023-06-22T11:34:35;9.90;;;6.47;;
71127;SDS011;59249;59.736;30.568;2023-06-22T11:37:04;10.23;;;6.50;;
71127;SDS011;59249;59.736;30.568;2023-06-22T11:39:33;10.57;;;7.05;;
71127;SDS011;59249;59.736;30.568;2023-06-22T11:42:14;9.13;;;6.28;;
71127;SDS011;59249;59.736;30.568;2023-06-22T11:44:42;11.50;;;6.53;;
71127;SDS011;59249;59.736;30.568;2023-06-22T11:47:11;8.37;;;6.50;;
71127;SDS011;59249;59.736;30.568;2023-06-22T11:49:42;8.88;;;5.80;;
71127;SDS011;59249;59.736;30.568;2023-06-22T11:52:11;9.43;;;6.57;;
71127;SDS011;59249;59.736;30.568;2023-06-22T11:54:44;8.32;;;6.10;;
71127;SDS011;59249;59.736;30.568;2023-06-22T11:57:13;9.80;;;6.30;;
71127;SDS011;59249;59.736;30.568;2023-06-22T11:59:42;10.93;;;6.73;;
71127;SDS011;59249;59.736;30.568;2023-06-22T12:02:11;10.48;;;6.85;;
71127;SDS011;59249;59.736;30.568;2023-06-22T12:04:41;9.40;;;6.72;;
71127;SDS011;59249;59.736;30.568;2023-06-22T12:07:10;8.10;;;6.15;;
71127;SDS011;59249;59.736;30.568;2023-06-22T12:09:39;13.70;;;5.47;;
71127;SDS011;59249;59.736;30.568;2023-06-22T12:12:08;20.13;;;6.73;;
71127;SDS011;59249;59.736;30.568;2023-06-22T12:14:37;22.77;;;7.90;;
71127;SDS011;59249;59.736;30.568;2023-06-22T12:17:05;18.70;;;7.45;;
71127;SDS011;59249;59.736;30.568;2023-06-22T12:19:34;15.00;;;6.78;;
71127;SDS011;59249;59.736;30.568;2023-06-22T12:22:04;9.57;;;3.63;;
71127;SDS011;59249;59.736;30.568;2023-06-22T12:24:33;9.77;;;4.57;;
71127;SDS011;59249;59.736;30.568;2023-06-22T12:27:02;7.53;;;4.05;;
71127;SDS011;59249;59.736;30.568;2023-06-22T12:29:32;6.95;;;4.30;;
71127;SDS011;59249;59.736;30.568;2023-06-22T12:32:01;7.43;;;5.05;;
71127;SDS011;59249;59.736;30.568;2023-06-22T12:34:30;7.35;;;4.60;;
71127;SDS011;59249;59.736;30.568;2023-06-22T12:36:59;7.70;;;4.13;;
71127;SDS011;59249;59.736;30.568;2023-06-22T12:39:30;10.68;;;4.47;;
71127;SDS011;59249;59.736;30.568;2023-06-22T12:41:59;7.97;;;4.30;;
71127;SDS011;59249;59.736;30.568;2023-06-22T12:44:27;7.32;;;4.70;;
71127;SDS011;59249;59.736;30.568;2023-06-22T12:46:56;9.98;;;4.60;;
71127;SDS011;59249;59.736;30.568;2023-06-22T12:49:25;9.07;;;4.50;;
71127;SDS011;59249;59.736;30.568;2023-06-22T12:51:54;11.05;;;5.75;;
71127;SDS011;59249;59.736;30.568;2023-06-22T12:54:22;7.95;;;5.72;;
71127;SDS011;59249;59.736;30.568;2023-06-22T12:56:53;10.85;;;6.53;;
71127;SDS011;59249;59.736;30.568;2023-06-22T12:59:21;12.30;;;6.30;;
71127;SDS011;59249;59.736;30.568;2023-06-22T13:01:50;9.50;;;6.20;;
71127;SDS011;59249;59.736;30.568;2023-06-22T13:04:19;10.70;;;6.38;;
71127;SDS011;59249;59.736;30.568;2023-06-22T13:06:48;11.00;;;6.60;;
71127;SDS011;59249;59.736;30.568;2023-06-22T13:09:18;10.45;;;6.40;;
71127;SDS011;59249;59.736;30.568;2023-06-22T13:11:47;9.25;;;6.10;;
71127;SDS011;59249;59.736;30.568;2023-06-22T13:14:17;10.33;;;7.10;;
71127;SDS011;59249;59.736;30.568;2023-06-22T13:16:46;12.23;;;7.38;;
71127;SDS011;59249;59.736;30.568;2023-06-22T13:19:15;11.07;;;7.05;;
71127;SDS011;59249;59.736;30.568;2023-06-22T13:21:44;13.20;;;8.27;;
71127;SDS011;59249;59.736;30.568;2023-06-22T13:24:13;13.35;;;7.25;;
71127;SDS011;59249;59.736;30.568;2023-06-22T13:26:43;10.67;;;7.67;;
71127;SDS011;59249;59.736;30.568;2023-06-22T13:29:11;10.73;;;6.90;;
71127;SDS011;59249;59.736;30.568;2023-06-22T13:31:42;10.13;;;6.93;;
71127;SDS011;59249;59.736;30.568;2023-06-22T13:34:10;11.13;;;6.70;;
71127;SDS011;59249;59.736;30.568;2023-06-22T13:36:39;10.85;;;7.00;;
71127;SDS011;59249;59.736;30.568;2023-06-22T13:39:08;10.77;;;7.30;;
71127;SDS011;59249;59.736;30.568;2023-06-22T13:41:37;14.05;;;7.82;;
71127;SDS011;59249;59.736;30.568;2023-06-22T13:44:06;11.15;;;7.05;;
71127;SDS011;59249;59.736;30.568;2023-06-22T13:46:34;11.68;;;7.93;;
71127;SDS011;59249;59.736;30.568;2023-06-22T13:49:05;12.98;;;8.05;;
71127;SDS011;59249;59.736;30.568;2023-06-22T13:51:36;11.40;;;7.63;;
71127;SDS011;59249;59.736;30.568;2023-06-22T13:54:05;12.10;;;6.85;;
71127;SDS011;59249;59.736;30.568;2023-06-22T13:56:50;14.40;;;6.72;;
71127;SDS011;59249;59.736;30.568;2023-06-22T13:59:19;9.85;;;7.18;;
71127;SDS011;59249;59.736;30.568;2023-06-22T14:01:48;11.85;;;7.75;;
71127;SDS011;59249;59.736;30.568;2023-06-22T14:04:18;11.10;;;6.80;;
71127;SDS011;59249;59.736;30.568;2023-06-22T14:06:47;11.13;;;7.15;;
71127;SDS011;59249;59.736;30.568;2023-06-22T14:09:16;13.90;;;8.05;;
71127;SDS011;59249;59.736;30.568;2023-06-22T14:11:44;12.60;;;8.48;;
71127;SDS011;59249;59.736;30.568;2023-06-22T14:14:13;18.23;;;9.80;;
71127;SDS011;59249;59.736;30.568;2023-06-22T14:16:42;17.07;;;9.87;;
71127;SDS011;59249;59.736;30.568;2023-06-22T14:19:11;18.73;;;10.57;;
71127;SDS011;59249;59.736;30.568;2023-06-22T14:21:41;14.60;;;9.93;;
71127;SDS011;59249;59.736;30.568;2023-06-22T14:24:10;15.30;;;10.40;;
71127;SDS011;59249;59.736;30.568;2023-06-22T14:26:42;14.70;;;10.52;;
71127;SDS011;59249;59.736;30.568;2023-06-22T14:29:10;15.17;;;10.43;;
71127;SDS011;59249;59.736;30.568;2023-06-22T14:31:39;15.88;;;9.45;;
71127;SDS011;59249;59.736;30.568;2023-06-22T14:34:11;15.77;;;9.63;;
71127;SDS011;59249;59.736;30.568;2023-06-22T14:36:41;13.00;;;9.90;;
71127;SDS011;59249;59.736;30.568;2023-06-22T14:39:10;14.32;;;9.88;;
71127;SDS011;59249;59.736;30.568;2023-06-22T14:41:39;14.63;;;10.27;;
71127;SDS011;59249;59.736;30.568;2023-06-22T14:44:08;16.10;;;10.10;;